sensor_id;sensor_type;location;lat;lon;timestamp;pressure;altitude;pressure_sealevel;temperature;humidity
73518;BME280;61766;60.318;25.044;2023-05-22T00:01:15;102321.80;;;14.77;33.17
73518;BME280;61766;60.318;25.044;2023-05-22T00:03:40;102321.63;;;14.72;33.06
73518;BME280;61766;60.318;25.044;2023-05-22T00:06:06;102324.52;;;14.75;32.42
73518;BME280;61766;60.318;25.044;2023-05-22T00:08:31;102323.91;;;14.84;33.02
73518;BME280;61766;60.318;25.044;2023-05-22T00:10:56;102323.10;;;14.84;32.55
73518;BME280;61766;60.318;25.044;2023-05-22T00:13:21;102320.39;;;15.10;33.27
73518;BME280;61766;60.318;25.044;2023-05-22T00:15:46;102323.23;;;14.93;32.96
73518;BME280;61766;60.318;25.044;2023-05-22T00:18:11;102322.26;;;14.92;33.21
73518;BME280;61766;60.318;25.044;2023-05-22T00:20:36;102317.26;;;14.94;32.45
73518;BME280;61766;60.318;25.044;2023-05-22T00:23:02;102319.09;;;14.69;32.46
73518;BME280;61766;60.318;25.044;2023-05-22T00:25:27;102313.31;;;14.50;32.77
73518;BME280;61766;60.318;25.044;2023-05-22T00:27:53;102310.41;;;15.08;32.59
73518;BME280;61766;60.318;25.044;2023-05-22T00:30:18;102308.91;;;15.07;32.90
73518;BME280;61766;60.318;25.044;2023-05-22T00:32:43;102309.35;;;14.94;33.31
73518;BME280;61766;60.318;25.044;2023-05-22T00:35:09;102306.96;;;14.91;33.09
73518;BME280;61766;60.318;25.044;2023-05-22T00:37:33;102305.44;;;14.90;32.79
73518;BME280;61766;60.318;25.044;2023-05-22T00:39:58;102302.90;;;14.93;32.48
73518;BME280;61766;60.318;25.044;2023-05-22T00:42:23;102302.47;;;15.01;32.52
73518;BME280;61766;60.318;25.044;2023-05-22T00:44:48;102303.87;;;15.08;32.51
73518;BME280;61766;60.318;25.044;2023-05-22T00:47:13;102303.67;;;15.13;32.75
73518;BME280;61766;60.318;25.044;2023-05-22T00:49:39;102300.52;;;15.10;32.80
73518;BME280;61766;60.318;25.044;2023-05-22T00:52:04;102299.93;;;15.00;32.56
73518;BME280;61766;60.318;25.044;2023-05-22T00:54:29;102302.01;;;14.63;32.93
73518;BME280;61766;60.318;25.044;2023-05-22T00:56:54;102305.77;;;14.36;33.21
73518;BME280;61766;60.318;25.044;2023-05-22T00:59:19;102305.47;;;14.62;33.10
73518;BME280;61766;60.318;25.044;2023-05-22T01:01:44;102309.28;;;14.64;32.73
73518;BME280;61766;60.318;25.044;2023-05-22T01:04:11;102312.46;;;14.62;31.75
73518;BME280;61766;60.318;25.044;2023-05-22T01:06:34;102313.52;;;14.69;32.43
73518;BME280;61766;60.318;25.044;2023-05-22T01:08:59;102313.90;;;14.43;32.89
73518;BME280;61766;60.318;25.044;2023-05-22T01:11:27;102311.64;;;14.49;33.35
73518;BME280;61766;60.318;25.044;2023-05-22T01:13:55;102308.49;;;14.27;34.00
73518;BME280;61766;60.318;25.044;2023-05-22T01:16:20;102307.67;;;14.44;33.76
73518;BME280;61766;60.318;25.044;2023-05-22T01:18:44;102306.31;;;13.95;33.56
73518;BME280;61766;60.318;25.044;2023-05-22T01:21:10;102303.33;;;13.96;33.18
73518;BME280;61766;60.318;25.044;2023-05-22T01:23:45;102303.94;;;13.99;33.54
73518;BME280;61766;60.318;25.044;2023-05-22T01:26:07;102304.95;;;14.25;33.50
73518;BME280;61766;60.318;25.044;2023-05-22T01:28:35;102302.60;;;13.99;33.12
73518;BME280;61766;60.318;25.044;2023-05-22T01:30:49;102302.21;;;14.07;33.57
73518;BME280;61766;60.318;25.044;2023-05-22T01:33:14;102302.31;;;14.08;33.67
73518;BME280;61766;60.318;25.044;2023-05-22T01:35:38;102303.32;;;14.07;33.53
73518;BME280;61766;60.318;25.044;2023-05-22T01:38:02;102302.39;;;14.01;33.71
73518;BME280;61766;60.318;25.044;2023-05-22T01:40:27;102301.66;;;13.96;33.57
73518;BME280;61766;60.318;25.044;2023-05-22T01:42:52;102298.29;;;13.93;33.58
73518;BME280;61766;60.318;25.044;2023-05-22T01:45:17;102301.32;;;13.71;34.10
73518;BME280;61766;60.318;25.044;2023-05-22T01:47:42;102298.79;;;13.70;33.61
73518;BME280;61766;60.318;25.044;2023-05-22T01:50:07;102294.60;;;13.63;34.20
73518;BME280;61766;60.318;25.044;2023-05-22T01:52:39;102293.77;;;14.00;33.88
73518;BME280;61766;60.318;25.044;2023-05-22T01:55:02;102295.46;;;13.75;33.43
73518;BME280;61766;60.318;25.044;2023-05-22T01:57:27;102294.52;;;14.00;33.52
73518;BME280;61766;60.318;25.044;2023-05-22T01:59:51;102294.03;;;14.21;33.38
73518;BME280;61766;60.318;25.044;2023-05-22T02:02:16;102290.12;;;13.82;33.19
73518;BME280;61766;60.318;25.044;2023-05-22T02:04:41;102292.41;;;13.74;33.83
73518;BME280;61766;60.318;25.044;2023-05-22T02:07:04;102291.72;;;13.82;34.45
73518;BME280;61766;60.318;25.044;2023-05-22T02:09:29;102290.59;;;13.36;34.35
73518;BME280;61766;60.318;25.044;2023-05-22T02:11:54;102291.47;;;13.74;34.28
73518;BME280;61766;60.318;25.044;2023-05-22T02:14:19;102287.69;;;13.86;33.86
73518;BME280;61766;60.318;25.044;2023-05-22T02:16:44;102282.10;;;13.78;34.07
73518;BME280;61766;60.318;25.044;2023-05-22T02:19:10;102282.03;;;13.55;34.33
73518;BME280;61766;60.318;25.044;2023-05-22T02:21:35;102282.27;;;13.62;34.21
73518;BME280;61766;60.318;25.044;2023-05-22T02:24:00;102279.97;;;13.91;34.47
73518;BME280;61766;60.318;25.044;2023-05-22T02:26:25;102279.73;;;14.02;34.16
73518;BME280;61766;60.318;25.044;2023-05-22T02:28:50;102275.18;;;13.65;33.96
73518;BME280;61766;60.318;25.044;2023-05-22T02:31:15;102274.36;;;14.13;34.98
73518;BME280;61766;60.318;25.044;2023-05-22T02:33:40;102274.91;;;13.83;34.65
73518;BME280;61766;60.318;25.044;2023-05-22T02:36:06;102271.97;;;13.67;34.63
73518;BME280;61766;60.318;25.044;2023-05-22T02:38:31;102267.97;;;14.25;33.88
73518;BME280;61766;60.318;25.044;2023-05-22T02:40:56;102266.82;;;14.14;33.65
73518;BME280;61766;60.318;25.044;2023-05-22T02:43:21;102264.66;;;13.97;33.33
73518;BME280;61766;60.318;25.044;2023-05-22T02:45:47;102266.23;;;14.01;33.78
73518;BME280;61766;60.318;25.044;2023-05-22T02:48:12;102275.86;;;13.95;34.72
73518;BME280;61766;60.318;25.044;2023-05-22T02:50:37;102280.22;;;13.81;34.48
73518;BME280;61766;60.318;25.044;2023-05-22T02:53:02;102272.46;;;14.04;34.62
73518;BME280;61766;60.318;25.044;2023-05-22T02:55:27;102279.94;;;14.28;35.41
73518;BME280;61766;60.318;25.044;2023-05-22T02:57:53;102280.47;;;14.21;34.39
73518;BME280;61766;60.318;25.044;2023-05-22T03:00:19;102277.31;;;14.27;34.53
73518;BME280;61766;60.318;25.044;2023-05-22T03:02:44;102274.28;;;14.27;35.01
73518;BME280;61766;60.318;25.044;2023-05-22T03:05:09;102269.25;;;14.65;34.66
73518;BME280;61766;60.318;25.044;2023-05-22T03:07:35;102266.87;;;14.32;34.75
73518;BME280;61766;60.318;25.044;2023-05-22T03:10:00;102264.66;;;14.39;34.66
73518;BME280;61766;60.318;25.044;2023-05-22T03:12:25;102264.62;;;14.40;34.89
73518;BME280;61766;60.318;25.044;2023-05-22T03:14:50;102260.24;;;14.58;34.85
73518;BME280;61766;60.318;25.044;2023-05-22T03:17:16;102259.53;;;14.77;34.74
73518;BME280;61766;60.318;25.044;2023-05-22T03:19:41;102259.44;;;14.92;34.24
73518;BME280;61766;60.318;25.044;2023-05-22T03:22:06;102259.45;;;14.77;34.67
73518;BME280;61766;60.318;25.044;2023-05-22T03:24:31;102255.86;;;14.76;34.91
73518;BME280;61766;60.318;25.044;2023-05-22T03:26:58;102253.97;;;14.77;36.00
73518;BME280;61766;60.318;25.044;2023-05-22T03:29:22;102252.19;;;14.77;35.73
73518;BME280;61766;60.318;25.044;2023-05-22T03:31:47;102249.95;;;14.95;35.23
73518;BME280;61766;60.318;25.044;2023-05-22T03:34:12;102250.92;;;15.08;35.55
73518;BME280;61766;60.318;25.044;2023-05-22T03:36:37;102250.81;;;15.05;34.90
73518;BME280;61766;60.318;25.044;2023-05-22T03:39:03;102256.74;;;15.09;34.89
73518;BME280;61766;60.318;25.044;2023-05-22T03:41:29;102262.56;;;15.44;33.65
73518;BME280;61766;60.318;25.044;2023-05-22T03:43:55;102255.16;;;15.62;32.60
73518;BME280;61766;60.318;25.044;2023-05-22T03:46:18;102255.08;;;15.73;32.46
73518;BME280;61766;60.318;25.044;2023-05-22T03:48:43;102255.01;;;15.37;32.42
73518;BME280;61766;60.318;25.044;2023-05-22T03:51:08;102255.09;;;15.70;32.50
73518;BME280;61766;60.318;25.044;2023-05-22T03:53:33;102256.27;;;15.25;32.84
73518;BME280;61766;60.318;25.044;2023-05-22T03:55:58;102254.30;;;15.45;32.47
73518;BME280;61766;60.318;25.044;2023-05-22T03:58:23;102252.44;;;16.20;32.47
73518;BME280;61766;60.318;25.044;2023-05-22T04:00:49;102248.21;;;16.09;32.00
73518;BME280;61766;60.318;25.044;2023-05-22T04:03:14;102248.61;;;16.32;31.55
73518;BME280;61766;60.318;25.044;2023-05-22T04:05:39;102244.38;;;16.22;31.59
73518;BME280;61766;60.318;25.044;2023-05-22T04:08:05;102243.77;;;16.61;31.34
73518;BME280;61766;60.318;25.044;2023-05-22T04:10:30;102244.66;;;16.45;31.27
73518;BME280;61766;60.318;25.044;2023-05-22T04:12:55;102242.09;;;16.73;31.18
73518;BME280;61766;60.318;25.044;2023-05-22T04:15:21;102238.28;;;16.74;30.77
73518;BME280;61766;60.318;25.044;2023-05-22T04:17:46;102240.49;;;16.75;30.47
73518;BME280;61766;60.318;25.044;2023-05-22T04:20:12;102242.98;;;16.89;30.15
73518;BME280;61766;60.318;25.044;2023-05-22T04:22:37;102242.23;;;17.48;29.79
73518;BME280;61766;60.318;25.044;2023-05-22T04:25:03;102238.80;;;17.35;29.51
73518;BME280;61766;60.318;25.044;2023-05-22T04:27:28;102238.40;;;17.45;29.21
73518;BME280;61766;60.318;25.044;2023-05-22T04:29:54;102241.08;;;17.87;29.27
73518;BME280;61766;60.318;25.044;2023-05-22T04:32:20;102236.73;;;17.69;28.81
73518;BME280;61766;60.318;25.044;2023-05-22T04:34:47;102234.36;;;18.03;28.77
73518;BME280;61766;60.318;25.044;2023-05-22T04:37:12;102238.48;;;17.75;28.40
73518;BME280;61766;60.318;25.044;2023-05-22T04:39:38;102234.59;;;17.98;28.32
73518;BME280;61766;60.318;25.044;2023-05-22T04:42:04;102235.64;;;17.95;28.31
73518;BME280;61766;60.318;25.044;2023-05-22T04:44:29;102235.39;;;18.27;27.61
73518;BME280;61766;60.318;25.044;2023-05-22T04:46:55;102235.72;;;18.28;27.13
73518;BME280;61766;60.318;25.044;2023-05-22T04:49:20;102226.92;;;18.47;27.27
73518;BME280;61766;60.318;25.044;2023-05-22T04:51:46;102226.24;;;18.60;26.49
73518;BME280;61766;60.318;25.044;2023-05-22T04:54:12;102228.34;;;18.81;26.64
73518;BME280;61766;60.318;25.044;2023-05-22T04:56:38;102222.08;;;18.66;26.59
73518;BME280;61766;60.318;25.044;2023-05-22T04:59:04;102224.41;;;18.93;27.19
73518;BME280;61766;60.318;25.044;2023-05-22T05:01:30;102219.16;;;19.10;27.21
73518;BME280;61766;60.318;25.044;2023-05-22T05:03:55;102216.06;;;19.46;25.84
73518;BME280;61766;60.318;25.044;2023-05-22T05:06:21;102217.41;;;19.66;25.99
73518;BME280;61766;60.318;25.044;2023-05-22T05:08:47;102216.53;;;19.65;26.38
73518;BME280;61766;60.318;25.044;2023-05-22T05:11:13;102218.40;;;20.01;25.78
73518;BME280;61766;60.318;25.044;2023-05-22T05:13:38;102214.53;;;20.05;26.20
73518;BME280;61766;60.318;25.044;2023-05-22T05:16:05;102211.52;;;20.12;25.58
73518;BME280;61766;60.318;25.044;2023-05-22T05:18:30;102206.83;;;20.23;25.87
73518;BME280;61766;60.318;25.044;2023-05-22T05:20:56;102202.88;;;20.03;24.89
73518;BME280;61766;60.318;25.044;2023-05-22T05:23:21;102205.17;;;20.31;25.02
73518;BME280;61766;60.318;25.044;2023-05-22T05:25:47;102206.94;;;20.11;25.52
73518;BME280;61766;60.318;25.044;2023-05-22T05:28:13;102205.95;;;20.47;26.26
73518;BME280;61766;60.318;25.044;2023-05-22T05:30:39;102202.30;;;20.90;26.38
73518;BME280;61766;60.318;25.044;2023-05-22T05:33:05;102203.25;;;20.88;25.24
73518;BME280;61766;60.318;25.044;2023-05-22T05:35:30;102207.45;;;20.96;24.45
73518;BME280;61766;60.318;25.044;2023-05-22T05:37:56;102211.75;;;21.40;25.03
73518;BME280;61766;60.318;25.044;2023-05-22T05:40:22;102214.66;;;21.22;23.77
73518;BME280;61766;60.318;25.044;2023-05-22T05:42:48;102211.86;;;21.28;23.53
73518;BME280;61766;60.318;25.044;2023-05-22T05:45:14;102209.74;;;20.95;23.50
73518;BME280;61766;60.318;25.044;2023-05-22T05:47:39;102209.73;;;21.35;23.81
73518;BME280;61766;60.318;25.044;2023-05-22T05:50:05;102210.11;;;21.51;24.07
73518;BME280;61766;60.318;25.044;2023-05-22T05:52:31;102211.71;;;21.16;24.06
73518;BME280;61766;60.318;25.044;2023-05-22T05:54:56;102205.41;;;21.66;24.15
73518;BME280;61766;60.318;25.044;2023-05-22T05:57:22;102211.03;;;21.95;23.31
73518;BME280;61766;60.318;25.044;2023-05-22T05:59:48;102205.66;;;21.75;22.37
73518;BME280;61766;60.318;25.044;2023-05-22T06:02:14;102207.36;;;22.00;22.53
73518;BME280;61766;60.318;25.044;2023-05-22T06:04:39;102203.80;;;21.31;22.12
73518;BME280;61766;60.318;25.044;2023-05-22T06:07:05;102205.14;;;21.95;22.15
73518;BME280;61766;60.318;25.044;2023-05-22T06:09:31;102204.28;;;21.92;22.55
73518;BME280;61766;60.318;25.044;2023-05-22T06:11:57;102202.51;;;21.96;21.73
73518;BME280;61766;60.318;25.044;2023-05-22T06:14:22;102200.23;;;21.59;21.84
73518;BME280;61766;60.318;25.044;2023-05-22T06:16:48;102201.61;;;22.25;21.76
73518;BME280;61766;60.318;25.044;2023-05-22T06:19:14;102198.58;;;22.61;21.78
73518;BME280;61766;60.318;25.044;2023-05-22T06:21:39;102196.69;;;22.07;21.00
73518;BME280;61766;60.318;25.044;2023-05-22T06:24:05;102195.31;;;21.56;21.89
73518;BME280;61766;60.318;25.044;2023-05-22T06:26:31;102194.79;;;22.51;21.81
73518;BME280;61766;60.318;25.044;2023-05-22T06:28:57;102190.48;;;22.93;20.92
73518;BME280;61766;60.318;25.044;2023-05-22T06:31:22;102191.52;;;23.10;21.16
73518;BME280;61766;60.318;25.044;2023-05-22T06:33:48;102194.66;;;23.84;20.59
73518;BME280;61766;60.318;25.044;2023-05-22T06:36:14;102195.75;;;23.61;20.96
73518;BME280;61766;60.318;25.044;2023-05-22T06:38:40;102192.33;;;23.86;20.25
73518;BME280;61766;60.318;25.044;2023-05-22T06:41:05;102194.47;;;24.05;19.51
73518;BME280;61766;60.318;25.044;2023-05-22T06:43:31;102187.27;;;24.17;19.57
73518;BME280;61766;60.318;25.044;2023-05-22T06:45:57;102187.15;;;24.08;18.68
73518;BME280;61766;60.318;25.044;2023-05-22T06:48:22;102186.46;;;23.20;18.97
73518;BME280;61766;60.318;25.044;2023-05-22T06:50:48;102179.60;;;24.03;18.70
73518;BME280;61766;60.318;25.044;2023-05-22T06:53:14;102182.18;;;24.19;19.09
73518;BME280;61766;60.318;25.044;2023-05-22T06:55:39;102174.32;;;24.24;18.90
73518;BME280;61766;60.318;25.044;2023-05-22T06:58:05;102172.51;;;24.24;18.51
73518;BME280;61766;60.318;25.044;2023-05-22T07:00:30;102171.03;;;24.80;19.16
73518;BME280;61766;60.318;25.044;2023-05-22T07:02:56;102167.12;;;24.55;18.47
73518;BME280;61766;60.318;25.044;2023-05-22T07:05:22;102163.94;;;24.35;18.44
73518;BME280;61766;60.318;25.044;2023-05-22T07:07:48;102159.82;;;25.01;19.42
73518;BME280;61766;60.318;25.044;2023-05-22T07:10:13;102163.11;;;24.83;18.41
73518;BME280;61766;60.318;25.044;2023-05-22T07:12:39;102164.91;;;24.78;18.00
73518;BME280;61766;60.318;25.044;2023-05-22T07:15:05;102157.04;;;24.43;17.65
73518;BME280;61766;60.318;25.044;2023-05-22T07:17:30;102164.78;;;24.72;17.66
73518;BME280;61766;60.318;25.044;2023-05-22T07:19:56;102160.91;;;25.36;17.91
73518;BME280;61766;60.318;25.044;2023-05-22T07:22:21;102162.29;;;25.82;17.88
73518;BME280;61766;60.318;25.044;2023-05-22T07:24:47;102156.65;;;25.77;17.07
73518;BME280;61766;60.318;25.044;2023-05-22T07:27:13;102160.51;;;25.48;17.83
73518;BME280;61766;60.318;25.044;2023-05-22T07:29:38;102158.89;;;24.83;16.89
73518;BME280;61766;60.318;25.044;2023-05-22T07:32:04;102152.00;;;25.13;17.63
73518;BME280;61766;60.318;25.044;2023-05-22T07:34:30;102153.55;;;25.19;17.79
73518;BME280;61766;60.318;25.044;2023-05-22T07:36:55;102161.07;;;24.50;17.05
73518;BME280;61766;60.318;25.044;2023-05-22T07:39:21;102164.25;;;24.90;16.48
73518;BME280;61766;60.318;25.044;2023-05-22T07:41:47;102156.10;;;25.28;16.59
73518;BME280;61766;60.318;25.044;2023-05-22T07:44:12;102157.01;;;25.72;17.03
73518;BME280;61766;60.318;25.044;2023-05-22T07:46:38;102164.06;;;25.46;16.36
73518;BME280;61766;60.318;25.044;2023-05-22T07:49:04;102162.20;;;25.25;15.75
73518;BME280;61766;60.318;25.044;2023-05-22T07:51:29;102154.09;;;25.19;16.28
73518;BME280;61766;60.318;25.044;2023-05-22T07:53:55;102153.94;;;24.68;16.90
73518;BME280;61766;60.318;25.044;2023-05-22T07:56:21;102152.26;;;25.78;17.79
73518;BME280;61766;60.318;25.044;2023-05-22T07:58:46;102151.66;;;25.51;16.90
73518;BME280;61766;60.318;25.044;2023-05-22T08:01:12;102149.23;;;26.26;16.25
73518;BME280;61766;60.318;25.044;2023-05-22T08:03:38;102146.27;;;25.34;15.89
73518;BME280;61766;60.318;25.044;2023-05-22T08:06:05;102149.22;;;25.58;15.73
73518;BME280;61766;60.318;25.044;2023-05-22T08:08:29;102148.09;;;25.90;15.33
73518;BME280;61766;60.318;25.044;2023-05-22T08:10:54;102148.20;;;25.65;15.39
73518;BME280;61766;60.318;25.044;2023-05-22T08:13:21;102148.61;;;25.10;15.98
73518;BME280;61766;60.318;25.044;2023-05-22T08:15:46;102144.02;;;25.85;16.26
73518;BME280;61766;60.318;25.044;2023-05-22T08:18:12;102141.79;;;26.17;16.14
73518;BME280;61766;60.318;25.044;2023-05-22T08:20:37;102142.79;;;25.38;15.76
73518;BME280;61766;60.318;25.044;2023-05-22T08:23:03;102141.08;;;26.13;15.66
73518;BME280;61766;60.318;25.044;2023-05-22T08:25:28;102139.79;;;25.84;16.07
73518;BME280;61766;60.318;25.044;2023-05-22T08:27:54;102131.97;;;25.33;16.67
73518;BME280;61766;60.318;25.044;2023-05-22T08:30:20;102128.81;;;25.44;16.84
73518;BME280;61766;60.318;25.044;2023-05-22T08:32:46;102130.86;;;26.23;16.52
73518;BME280;61766;60.318;25.044;2023-05-22T08:35:11;102130.59;;;26.56;17.17
73518;BME280;61766;60.318;25.044;2023-05-22T08:37:37;102125.06;;;27.14;16.89
73518;BME280;61766;60.318;25.044;2023-05-22T08:40:03;102132.46;;;26.73;15.85
73518;BME280;61766;60.318;25.044;2023-05-22T08:42:28;102131.41;;;25.94;16.38
73518;BME280;61766;60.318;25.044;2023-05-22T08:44:54;102126.50;;;26.64;16.86
73518;BME280;61766;60.318;25.044;2023-05-22T08:47:21;102125.23;;;26.00;16.77
73518;BME280;61766;60.318;25.044;2023-05-22T08:49:48;102120.78;;;25.39;16.90
73518;BME280;61766;60.318;25.044;2023-05-22T08:52:13;102119.06;;;26.20;17.13
73518;BME280;61766;60.318;25.044;2023-05-22T08:54:40;102121.09;;;25.13;17.43
73518;BME280;61766;60.318;25.044;2023-05-22T08:57:03;102121.68;;;24.91;17.24
73518;BME280;61766;60.318;25.044;2023-05-22T08:59:28;102123.90;;;24.53;18.05
73518;BME280;61766;60.318;25.044;2023-05-22T09:01:54;102121.47;;;25.54;17.12
73518;BME280;61766;60.318;25.044;2023-05-22T09:04:20;102117.21;;;25.62;17.04
73518;BME280;61766;60.318;25.044;2023-05-22T09:06:46;102115.34;;;25.16;17.62
73518;BME280;61766;60.318;25.044;2023-05-22T09:09:10;102108.04;;;24.92;17.90
73518;BME280;61766;60.318;25.044;2023-05-22T09:11:36;102114.16;;;25.14;17.77
73518;BME280;61766;60.318;25.044;2023-05-22T09:14:07;102121.38;;;24.44;17.94
73518;BME280;61766;60.318;25.044;2023-05-22T09:16:27;102103.65;;;25.98;17.21
73518;BME280;61766;60.318;25.044;2023-05-22T09:18:53;102107.62;;;25.97;16.93
73518;BME280;61766;60.318;25.044;2023-05-22T09:21:19;102104.90;;;25.83;16.13
73518;BME280;61766;60.318;25.044;2023-05-22T09:23:48;102103.57;;;26.32;16.48
73518;BME280;61766;60.318;25.044;2023-05-22T09:26:10;102095.60;;;27.24;15.90
73518;BME280;61766;60.318;25.044;2023-05-22T09:28:36;102102.13;;;27.07;15.68
73518;BME280;61766;60.318;25.044;2023-05-22T09:31:02;102098.84;;;27.86;15.65
73518;BME280;61766;60.318;25.044;2023-05-22T09:33:27;102094.74;;;27.11;15.22
73518;BME280;61766;60.318;25.044;2023-05-22T09:35:53;102100.18;;;26.61;16.01
73518;BME280;61766;60.318;25.044;2023-05-22T09:38:20;102103.70;;;25.76;16.58
73518;BME280;61766;60.318;25.044;2023-05-22T09:40:44;102100.52;;;25.23;16.75
73518;BME280;61766;60.318;25.044;2023-05-22T09:43:11;102095.91;;;24.88;17.06
73518;BME280;61766;60.318;25.044;2023-05-22T09:45:36;102094.17;;;24.88;17.60
73518;BME280;61766;60.318;25.044;2023-05-22T09:48:01;102085.53;;;24.83;17.40
73518;BME280;61766;60.318;25.044;2023-05-22T09:50:27;102082.62;;;24.39;17.71
73518;BME280;61766;60.318;25.044;2023-05-22T09:52:53;102085.44;;;24.30;17.30
73518;BME280;61766;60.318;25.044;2023-05-22T09:55:19;102079.72;;;25.42;16.84
73518;BME280;61766;60.318;25.044;2023-05-22T09:57:44;102075.96;;;25.79;17.11
73518;BME280;61766;60.318;25.044;2023-05-22T10:00:11;102073.04;;;24.04;17.59
73518;BME280;61766;60.318;25.044;2023-05-22T10:02:36;102064.13;;;24.42;17.21
73518;BME280;61766;60.318;25.044;2023-05-22T10:05:05;102067.76;;;24.70;16.96
73518;BME280;61766;60.318;25.044;2023-05-22T10:07:31;102066.11;;;24.96;17.25
73518;BME280;61766;60.318;25.044;2023-05-22T10:10:01;102064.41;;;25.32;17.08
73518;BME280;61766;60.318;25.044;2023-05-22T10:12:20;102069.10;;;24.03;17.93
73518;BME280;61766;60.318;25.044;2023-05-22T10:14:43;102063.71;;;23.92;18.04
73518;BME280;61766;60.318;25.044;2023-05-22T10:17:09;102059.84;;;24.19;17.60
73518;BME280;61766;60.318;25.044;2023-05-22T10:19:35;102055.05;;;24.03;18.34
73518;BME280;61766;60.318;25.044;2023-05-22T10:22:01;102051.56;;;23.12;18.61
73518;BME280;61766;60.318;25.044;2023-05-22T10:24:26;102046.83;;;22.74;18.34
73518;BME280;61766;60.318;25.044;2023-05-22T10:26:52;102044.01;;;24.61;17.99
73518;BME280;61766;60.318;25.044;2023-05-22T10:29:21;102042.14;;;24.27;17.05
73518;BME280;61766;60.318;25.044;2023-05-22T10:31:48;102045.10;;;25.09;17.03
73518;BME280;61766;60.318;25.044;2023-05-22T10:34:11;102038.52;;;24.77;16.67
73518;BME280;61766;60.318;25.044;2023-05-22T10:36:43;102033.19;;;24.94;16.94
73518;BME280;61766;60.318;25.044;2023-05-22T10:39:09;102032.28;;;24.87;16.89
73518;BME280;61766;60.318;25.044;2023-05-22T10:41:26;102031.71;;;25.60;16.69
73518;BME280;61766;60.318;25.044;2023-05-22T10:43:51;102027.71;;;24.88;16.83
73518;BME280;61766;60.318;25.044;2023-05-22T10:46:17;102022.91;;;25.87;16.58
73518;BME280;61766;60.318;25.044;2023-05-22T10:48:44;102019.00;;;26.49;16.14
73518;BME280;61766;60.318;25.044;2023-05-22T10:51:08;102024.38;;;25.67;16.95
73518;BME280;61766;60.318;25.044;2023-05-22T10:53:34;102025.34;;;24.81;16.99
73518;BME280;61766;60.318;25.044;2023-05-22T10:56:10;102021.98;;;25.52;16.59
73518;BME280;61766;60.318;25.044;2023-05-22T10:58:26;102020.36;;;25.60;16.16
73518;BME280;61766;60.318;25.044;2023-05-22T11:03:16;102022.44;;;25.64;17.40
73518;BME280;61766;60.318;25.044;2023-05-22T11:05:42;102015.70;;;25.16;16.74
73518;BME280;61766;60.318;25.044;2023-05-22T11:08:12;102012.83;;;25.66;16.79
73518;BME280;61766;60.318;25.044;2023-05-22T11:13:10;102004.61;;;24.71;17.55
73518;BME280;61766;60.318;25.044;2023-05-22T11:15:30;101997.47;;;25.00;17.92
73518;BME280;61766;60.318;25.044;2023-05-22T11:17:50;101996.45;;;25.24;17.14
73518;BME280;61766;60.318;25.044;2023-05-22T11:20:19;101995.42;;;25.56;16.84
73518;BME280;61766;60.318;25.044;2023-05-22T11:22:43;101989.21;;;24.63;17.41
73518;BME280;61766;60.318;25.044;2023-05-22T11:25:08;101995.73;;;24.81;17.37
73518;BME280;61766;60.318;25.044;2023-05-22T11:27:33;101986.76;;;25.51;17.31
73518;BME280;61766;60.318;25.044;2023-05-22T11:29:58;101978.19;;;25.72;16.58
73518;BME280;61766;60.318;25.044;2023-05-22T11:32:26;101977.01;;;25.31;16.78
73518;BME280;61766;60.318;25.044;2023-05-22T11:34:50;101976.73;;;23.61;18.32
73518;BME280;61766;60.318;25.044;2023-05-22T11:37:16;101969.23;;;24.87;16.98
73518;BME280;61766;60.318;25.044;2023-05-22T11:39:41;101963.89;;;25.65;16.88
73518;BME280;61766;60.318;25.044;2023-05-22T11:42:07;101964.78;;;25.59;16.58
73518;BME280;61766;60.318;25.044;2023-05-22T11:44:32;101960.98;;;26.08;16.74
73518;BME280;61766;60.318;25.044;2023-05-22T11:46:58;101957.62;;;25.75;17.08
73518;BME280;61766;60.318;25.044;2023-05-22T11:49:24;101943.29;;;26.26;16.70
73518;BME280;61766;60.318;25.044;2023-05-22T11:51:50;101945.24;;;27.00;15.85
73518;BME280;61766;60.318;25.044;2023-05-22T11:54:16;101939.96;;;26.95;15.26
73518;BME280;61766;60.318;25.044;2023-05-22T11:56:41;101941.53;;;24.92;16.01
73518;BME280;61766;60.318;25.044;2023-05-22T11:59:06;101941.97;;;24.56;16.89
73518;BME280;61766;60.318;25.044;2023-05-22T12:01:32;101938.85;;;24.89;17.09
73518;BME280;61766;60.318;25.044;2023-05-22T12:03:58;101931.15;;;24.93;17.20
73518;BME280;61766;60.318;25.044;2023-05-22T12:06:24;101929.70;;;24.93;16.86
73518;BME280;61766;60.318;25.044;2023-05-22T12:08:49;101929.69;;;24.85;17.36
73518;BME280;61766;60.318;25.044;2023-05-22T12:11:15;101923.29;;;22.93;17.39
73518;BME280;61766;60.318;25.044;2023-05-22T12:13:40;101917.01;;;25.90;17.00
73518;BME280;61766;60.318;25.044;2023-05-22T12:16:17;101920.06;;;24.75;17.01
73518;BME280;61766;60.318;25.044;2023-05-22T12:18:35;101913.69;;;25.29;16.99
73518;BME280;61766;60.318;25.044;2023-05-22T12:20:57;101908.78;;;24.69;17.57
73518;BME280;61766;60.318;25.044;2023-05-22T12:23:24;101909.41;;;24.77;17.24
73518;BME280;61766;60.318;25.044;2023-05-22T12:25:55;101904.87;;;24.93;17.71
73518;BME280;61766;60.318;25.044;2023-05-22T12:28:14;101902.39;;;25.21;17.15
73518;BME280;61766;60.318;25.044;2023-05-22T12:30:41;101901.16;;;25.05;17.55
73518;BME280;61766;60.318;25.044;2023-05-22T12:33:11;101902.15;;;24.51;17.94
73518;BME280;61766;60.318;25.044;2023-05-22T12:35:31;101903.53;;;23.81;17.57